sensor_id;sensor_type;location;lat;lon;timestamp;temperature;humidity
66337;SHT30;53139;45.576;5.304;2023-09-19T00:02:07;19.12;89.57
66337;SHT30;53139;45.576;5.304;2023-09-19T00:05:09;19.16;89.35
66337;SHT30;53139;45.576;5.304;2023-09-19T00:08:09;19.28;89.81
66337;SHT30;53139;45.576;5.304;2023-09-19T00:11:10;19.25;89.72
66337;SHT30;53139;45.576;5.304;2023-09-19T00:14:11;19.40;89.16
66337;SHT30;53139;45.576;5.304;2023-09-19T00:17:14;19.42;89.39
66337;SHT30;53139;45.576;5.304;2023-09-19T00:20:16;19.39;89.30
66337;SHT30;53139;45.576;5.304;2023-09-19T00:23:17;19.43;89.28
66337;SHT30;53139;45.576;5.304;2023-09-19T00:26:19;19.25;89.91
66337;SHT30;53139;45.576;5.304;2023-09-19T00:29:21;19.33;89.83
66337;SHT30;53139;45.576;5.304;2023-09-19T00:32:23;19.23;90.02
66337;SHT30;53139;45.576;5.304;2023-09-19T00:35:23;18.84;91.23
66337;SHT30;53139;45.576;5.304;2023-09-19T00:38:24;18.70;92.43
66337;SHT30;53139;45.576;5.304;2023-09-19T00:41:27;18.37;92.48
66337;SHT30;53139;45.576;5.304;2023-09-19T00:44:30;18.33;92.97
66337;SHT30;53139;45.576;5.304;2023-09-19T00:47:30;18.64;92.22
66337;SHT30;53139;45.576;5.304;2023-09-19T00:50:31;18.77;91.45
66337;SHT30;53139;45.576;5.304;2023-09-19T00:53:32;18.81;91.06
66337;SHT30;53139;45.576;5.304;2023-09-19T00:56:34;19.11;90.44
66337;SHT30;53139;45.576;5.304;2023-09-19T00:59:35;19.12;90.27
66337;SHT30;53139;45.576;5.304;2023-09-19T01:02:36;19.22;89.79
66337;SHT30;53139;45.576;5.304;2023-09-19T01:05:37;19.14;90.75
66337;SHT30;53139;45.576;5.304;2023-09-19T01:08:37;19.22;90.44
66337;SHT30;53139;45.576;5.304;2023-09-19T01:11:40;19.28;90.16
66337;SHT30;53139;45.576;5.304;2023-09-19T01:22:16;19.22;90.29
66337;SHT30;53139;45.576;5.304;2023-09-19T01:32:04;18.92;91.56
66337;SHT30;53139;45.576;5.304;2023-09-19T01:35:05;19.14;90.88
66337;SHT30;53139;45.576;5.304;2023-09-19T01:38:06;19.20;90.34
66337;SHT30;53139;45.576;5.304;2023-09-19T01:41:12;19.11;91.20
66337;SHT30;53139;45.576;5.304;2023-09-19T01:44:51;19.19;90.11
66337;SHT30;53139;45.576;5.304;2023-09-19T01:47:59;19.33;90.16
66337;SHT30;53139;45.576;5.304;2023-09-19T01:51:08;19.23;90.51
66337;SHT30;53139;45.576;5.304;2023-09-19T01:54:12;19.23;90.46
66337;SHT30;53139;45.576;5.304;2023-09-19T01:57:35;18.94;90.96
66337;SHT30;53139;45.576;5.304;2023-09-19T02:00:40;18.98;90.81
66337;SHT30;53139;45.576;5.304;2023-09-19T02:03:41;19.09;90.60
66337;SHT30;53139;45.576;5.304;2023-09-19T02:06:44;19.18;90.30
66337;SHT30;53139;45.576;5.304;2023-09-19T02:09:47;19.02;90.91
66337;SHT30;53139;45.576;5.304;2023-09-19T02:12:48;19.05;90.92
66337;SHT30;53139;45.576;5.304;2023-09-19T02:15:49;18.90;90.80
66337;SHT30;53139;45.576;5.304;2023-09-19T02:18:50;18.91;90.76
66337;SHT30;53139;45.576;5.304;2023-09-19T02:21:50;19.04;90.41
66337;SHT30;53139;45.576;5.304;2023-09-19T02:24:50;19.15;90.27
66337;SHT30;53139;45.576;5.304;2023-09-19T02:27:51;19.05;91.04
66337;SHT30;53139;45.576;5.304;2023-09-19T02:30:54;19.12;90.53
66337;SHT30;53139;45.576;5.304;2023-09-19T02:33:55;19.18;90.56
66337;SHT30;53139;45.576;5.304;2023-09-19T02:36:56;18.70;91.63
66337;SHT30;53139;45.576;5.304;2023-09-19T02:39:57;18.70;91.88
66337;SHT30;53139;45.576;5.304;2023-09-19T02:42:57;18.70;92.64
66337;SHT30;53139;45.576;5.304;2023-09-19T02:45:59;18.91;91.23
66337;SHT30;53139;45.576;5.304;2023-09-19T02:48:59;19.12;90.61
66337;SHT30;53139;45.576;5.304;2023-09-19T02:52:00;19.23;90.16
66337;SHT30;53139;45.576;5.304;2023-09-19T02:55:00;19.18;90.65
66337;SHT30;53139;45.576;5.304;2023-09-19T02:58:01;18.95;91.32
66337;SHT30;53139;45.576;5.304;2023-09-19T03:01:10;18.88;91.63
66337;SHT30;53139;45.576;5.304;2023-09-19T03:04:15;18.88;91.46
66337;SHT30;53139;45.576;5.304;2023-09-19T03:07:20;18.90;91.50
66337;SHT30;53139;45.576;5.304;2023-09-19T03:10:21;18.81;91.84
66337;SHT30;53139;45.576;5.304;2023-09-19T03:13:22;18.87;91.92
66337;SHT30;53139;45.576;5.304;2023-09-19T03:16:22;18.85;92.13
66337;SHT30;53139;45.576;5.304;2023-09-19T03:19:22;18.78;92.17
66337;SHT30;53139;45.576;5.304;2023-09-19T03:22:23;19.09;91.30
66337;SHT30;53139;45.576;5.304;2023-09-19T03:25:25;19.15;91.28
66337;SHT30;53139;45.576;5.304;2023-09-19T03:28:25;19.12;91.22
66337;SHT30;53139;45.576;5.304;2023-09-19T03:31:25;19.16;91.48
66337;SHT30;53139;45.576;5.304;2023-09-19T03:34:26;19.01;91.47
66337;SHT30;53139;45.576;5.304;2023-09-19T03:37:26;19.02;91.88
66337;SHT30;53139;45.576;5.304;2023-09-19T03:40:27;18.92;92.06
66337;SHT30;53139;45.576;5.304;2023-09-19T03:43:27;19.00;92.36
66337;SHT30;53139;45.576;5.304;2023-09-19T03:46:28;18.98;91.63
66337;SHT30;53139;45.576;5.304;2023-09-19T03:49:28;18.88;90.86
66337;SHT30;53139;45.576;5.304;2023-09-19T03:52:29;18.85;90.85
66337;SHT30;53139;45.576;5.304;2023-09-19T03:55:29;18.68;90.79
66337;SHT30;53139;45.576;5.304;2023-09-19T03:58:32;18.63;90.83
66337;SHT30;53139;45.576;5.304;2023-09-19T04:01:35;18.59;90.40
66337;SHT30;53139;45.576;5.304;2023-09-19T04:04:35;18.42;90.20
66337;SHT30;53139;45.576;5.304;2023-09-19T04:07:36;18.40;91.02
66337;SHT30;53139;45.576;5.304;2023-09-19T04:10:36;18.49;90.56
66337;SHT30;53139;45.576;5.304;2023-09-19T04:13:36;18.45;90.13
66337;SHT30;53139;45.576;5.304;2023-09-19T04:16:37;18.39;89.40
66337;SHT30;53139;45.576;5.304;2023-09-19T04:19:39;18.39;89.48
66337;SHT30;53139;45.576;5.304;2023-09-19T04:22:41;18.43;90.14
66337;SHT30;53139;45.576;5.304;2023-09-19T04:25:41;18.46;90.05
66337;SHT30;53139;45.576;5.304;2023-09-19T04:28:41;18.54;89.82
66337;SHT30;53139;45.576;5.304;2023-09-19T04:31:44;18.45;88.54
66337;SHT30;53139;45.576;5.304;2023-09-19T04:34:45;18.56;89.50
66337;SHT30;53139;45.576;5.304;2023-09-19T04:37:46;18.36;89.25
66337;SHT30;53139;45.576;5.304;2023-09-19T04:40:48;18.53;89.79
66337;SHT30;53139;45.576;5.304;2023-09-19T04:43:48;18.63;89.14
66337;SHT30;53139;45.576;5.304;2023-09-19T04:46:50;18.53;89.70
66337;SHT30;53139;45.576;5.304;2023-09-19T04:49:51;18.57;90.16
66337;SHT30;53139;45.576;5.304;2023-09-19T04:52:51;18.67;89.97
66337;SHT30;53139;45.576;5.304;2023-09-19T04:55:52;18.56;89.85
66337;SHT30;53139;45.576;5.304;2023-09-19T04:58:55;18.53;89.86
66337;SHT30;53139;45.576;5.304;2023-09-19T05:01:57;18.61;89.18
66337;SHT30;53139;45.576;5.304;2023-09-19T05:04:57;18.73;89.30
66337;SHT30;53139;45.576;5.304;2023-09-19T05:08:00;18.59;88.69
66337;SHT30;53139;45.576;5.304;2023-09-19T05:11:03;18.56;90.02
66337;SHT30;53139;45.576;5.304;2023-09-19T05:14:04;18.56;89.67
66337;SHT30;53139;45.576;5.304;2023-09-19T05:17:04;18.66;90.05
66337;SHT30;53139;45.576;5.304;2023-09-19T05:20:05;18.59;89.53
66337;SHT30;53139;45.576;5.304;2023-09-19T05:23:15;18.52;90.62
66337;SHT30;53139;45.576;5.304;2023-09-19T05:26:16;18.29;90.52
66337;SHT30;53139;45.576;5.304;2023-09-19T05:29:18;18.32;91.14
66337;SHT30;53139;45.576;5.304;2023-09-19T05:32:18;18.28;91.17
66337;SHT30;53139;45.576;5.304;2023-09-19T05:35:20;18.42;90.64
66337;SHT30;53139;45.576;5.304;2023-09-19T05:38:21;18.45;90.16
66337;SHT30;53139;45.576;5.304;2023-09-19T05:41:23;18.30;91.23
66337;SHT30;53139;45.576;5.304;2023-09-19T05:44:23;18.24;90.90
66337;SHT30;53139;45.576;5.304;2023-09-19T05:47:24;18.18;91.15
66337;SHT30;53139;45.576;5.304;2023-09-19T05:50:25;18.22;90.86
66337;SHT30;53139;45.576;5.304;2023-09-19T05:53:25;18.35;91.04
66337;SHT30;53139;45.576;5.304;2023-09-19T05:56:26;18.37;90.74
66337;SHT30;53139;45.576;5.304;2023-09-19T05:59:27;18.42;90.99
66337;SHT30;53139;45.576;5.304;2023-09-19T06:02:28;18.59;90.18
66337;SHT30;53139;45.576;5.304;2023-09-19T06:05:30;18.54;89.71
66337;SHT30;53139;45.576;5.304;2023-09-19T06:08:33;18.66;89.75
66337;SHT30;53139;45.576;5.304;2023-09-19T06:11:34;18.53;89.80
66337;SHT30;53139;45.576;5.304;2023-09-19T06:14:35;18.28;90.74
66337;SHT30;53139;45.576;5.304;2023-09-19T06:17:35;18.16;91.96
66337;SHT30;53139;45.576;5.304;2023-09-19T06:20:38;18.24;91.34
66337;SHT30;53139;45.576;5.304;2023-09-19T06:23:44;18.36;91.16
66337;SHT30;53139;45.576;5.304;2023-09-19T06:26:44;18.42;90.88
66337;SHT30;53139;45.576;5.304;2023-09-19T06:29:45;18.35;90.90
66337;SHT30;53139;45.576;5.304;2023-09-19T06:32:46;18.35;90.31
66337;SHT30;53139;45.576;5.304;2023-09-19T06:35:46;18.60;90.07
66337;SHT30;53139;45.576;5.304;2023-09-19T06:38:47;18.67;88.92
66337;SHT30;53139;45.576;5.304;2023-09-19T06:41:52;18.80;90.08
66337;SHT30;53139;45.576;5.304;2023-09-19T06:44:53;18.95;89.08
66337;SHT30;53139;45.576;5.304;2023-09-19T06:47:54;19.07;87.70
66337;SHT30;53139;45.576;5.304;2023-09-19T06:50:57;18.84;88.67
66337;SHT30;53139;45.576;5.304;2023-09-19T06:53:58;18.95;88.41
66337;SHT30;53139;45.576;5.304;2023-09-19T06:56:59;19.23;88.52
66337;SHT30;53139;45.576;5.304;2023-09-19T06:59:59;19.56;87.73
66337;SHT30;53139;45.576;5.304;2023-09-19T07:06:04;19.85;87.04
66337;SHT30;53139;45.576;5.304;2023-09-19T07:09:04;20.00;86.65
66337;SHT30;53139;45.576;5.304;2023-09-19T07:12:05;20.49;85.49
66337;SHT30;53139;45.576;5.304;2023-09-19T07:15:06;20.39;85.40
66337;SHT30;53139;45.576;5.304;2023-09-19T07:18:07;20.25;84.04
66337;SHT30;53139;45.576;5.304;2023-09-19T07:21:11;20.38;85.29
66337;SHT30;53139;45.576;5.304;2023-09-19T07:24:15;20.73;84.59
66337;SHT30;53139;45.576;5.304;2023-09-19T07:27:15;20.83;84.75
66337;SHT30;53139;45.576;5.304;2023-09-19T07:30:16;21.14;83.83
66337;SHT30;53139;45.576;5.304;2023-09-19T07:33:17;21.01;82.66
66337;SHT30;53139;45.576;5.304;2023-09-19T07:36:17;21.14;84.11
66337;SHT30;53139;45.576;5.304;2023-09-19T07:39:17;20.94;82.94
66337;SHT30;53139;45.576;5.304;2023-09-19T07:42:18;20.91;81.93
66337;SHT30;53139;45.576;5.304;2023-09-19T07:45:18;21.14;81.83
66337;SHT30;53139;45.576;5.304;2023-09-19T07:48:19;21.12;81.91
66337;SHT30;53139;45.576;5.304;2023-09-19T07:51:19;21.82;81.58
66337;SHT30;53139;45.576;5.304;2023-09-19T07:54:20;21.72;82.12
66337;SHT30;53139;45.576;5.304;2023-09-19T07:57:21;21.70;81.70
66337;SHT30;53139;45.576;5.304;2023-09-19T08:00:22;21.22;82.57
66337;SHT30;53139;45.576;5.304;2023-09-19T08:03:22;21.34;82.93
66337;SHT30;53139;45.576;5.304;2023-09-19T08:06:22;21.56;84.03
66337;SHT30;53139;45.576;5.304;2023-09-19T08:09:23;21.15;83.10
66337;SHT30;53139;45.576;5.304;2023-09-19T08:12:24;21.50;84.11
66337;SHT30;53139;45.576;5.304;2023-09-19T08:15:24;21.65;81.85
66337;SHT30;53139;45.576;5.304;2023-09-19T08:18:24;21.27;83.79
66337;SHT30;53139;45.576;5.304;2023-09-19T08:21:26;21.50;84.00
66337;SHT30;53139;45.576;5.304;2023-09-19T08:24:30;21.86;83.14
66337;SHT30;53139;45.576;5.304;2023-09-19T08:27:30;22.72;81.30
66337;SHT30;53139;45.576;5.304;2023-09-19T08:30:31;21.90;79.11
66337;SHT30;53139;45.576;5.304;2023-09-19T08:33:32;22.22;81.62
66337;SHT30;53139;45.576;5.304;2023-09-19T08:36:33;21.60;81.11
66337;SHT30;53139;45.576;5.304;2023-09-19T08:39:33;21.98;82.87
66337;SHT30;53139;45.576;5.304;2023-09-19T08:42:52;22.70;77.42
66337;SHT30;53139;45.576;5.304;2023-09-19T08:49:24;24.75;74.77
66337;SHT30;53139;45.576;5.304;2023-09-19T08:52:40;25.76;73.57
66337;SHT30;53139;45.576;5.304;2023-09-19T08:55:43;27.16;70.23
66337;SHT30;53139;45.576;5.304;2023-09-19T08:58:51;26.96;68.89
66337;SHT30;53139;45.576;5.304;2023-09-19T09:01:58;26.37;70.65
66337;SHT30;53139;45.576;5.304;2023-09-19T09:04:59;24.03;75.05
66337;SHT30;53139;45.576;5.304;2023-09-19T09:08:00;23.01;78.30
66337;SHT30;53139;45.576;5.304;2023-09-19T09:11:02;22.80;79.42
66337;SHT30;53139;45.576;5.304;2023-09-19T09:14:03;22.42;80.57
66337;SHT30;53139;45.576;5.304;2023-09-19T09:17:03;22.24;79.07
66337;SHT30;53139;45.576;5.304;2023-09-19T09:20:04;22.35;82.94
66337;SHT30;53139;45.576;5.304;2023-09-19T09:23:10;24.24;76.99
66337;SHT30;53139;45.576;5.304;2023-09-19T09:26:10;26.30;73.00
66337;SHT30;53139;45.576;5.304;2023-09-19T09:29:10;28.32;66.41
66337;SHT30;53139;45.576;5.304;2023-09-19T09:35:25;28.74;65.49
66337;SHT30;53139;45.576;5.304;2023-09-19T09:38:27;31.11;60.31
66337;SHT30;53139;45.576;5.304;2023-09-19T09:41:36;26.14;68.30
66337;SHT30;53139;45.576;5.304;2023-09-19T09:44:37;24.71;74.88
66337;SHT30;53139;45.576;5.304;2023-09-19T09:47:47;24.16;72.77
66337;SHT30;53139;45.576;5.304;2023-09-19T09:50:55;24.44;78.72
66337;SHT30;53139;45.576;5.304;2023-09-19T09:54:10;24.62;76.14
66337;SHT30;53139;45.576;5.304;2023-09-19T09:57:12;23.48;75.20
66337;SHT30;53139;45.576;5.304;2023-09-19T10:00:23;23.14;77.42
66337;SHT30;53139;45.576;5.304;2023-09-19T10:03:40;23.12;76.64
66337;SHT30;53139;45.576;5.304;2023-09-19T10:06:43;28.19;66.34
66337;SHT30;53139;45.576;5.304;2023-09-19T10:09:47;33.93;53.37
66337;SHT30;53139;45.576;5.304;2023-09-19T10:12:48;34.54;52.92
66337;SHT30;53139;45.576;5.304;2023-09-19T10:15:51;34.89;51.67
66337;SHT30;53139;45.576;5.304;2023-09-19T10:18:55;34.59;48.85
66337;SHT30;53139;45.576;5.304;2023-09-19T10:21:58;35.50;52.11
66337;SHT30;53139;45.576;5.304;2023-09-19T10:25:00;36.45;49.61
66337;SHT30;53139;45.576;5.304;2023-09-19T10:28:05;32.59;48.94
66337;SHT30;53139;45.576;5.304;2023-09-19T10:31:10;34.10;53.62
66337;SHT30;53139;45.576;5.304;2023-09-19T10:34:15;34.16;47.54
66337;SHT30;53139;45.576;5.304;2023-09-19T10:37:16;37.37;47.49
66337;SHT30;53139;45.576;5.304;2023-09-19T10:40:18;36.85;46.60
66337;SHT30;53139;45.576;5.304;2023-09-19T10:43:21;36.84;49.96
66337;SHT30;53139;45.576;5.304;2023-09-19T10:46:25;39.08;45.85
66337;SHT30;53139;45.576;5.304;2023-09-19T10:49:25;29.81;63.58
66337;SHT30;53139;45.576;5.304;2023-09-19T10:52:27;27.55;71.12
66337;SHT30;53139;45.576;5.304;2023-09-19T10:55:30;28.05;69.37
66337;SHT30;53139;45.576;5.304;2023-09-19T10:58:32;35.10;53.32
66337;SHT30;53139;45.576;5.304;2023-09-19T11:01:44;35.79;49.38
66337;SHT30;53139;45.576;5.304;2023-09-19T11:04:47;36.16;43.09
66337;SHT30;53139;45.576;5.304;2023-09-19T11:07:58;29.27;58.19
66337;SHT30;53139;45.576;5.304;2023-09-19T11:11:39;27.24;68.75
66337;SHT30;53139;45.576;5.304;2023-09-19T11:14:41;37.46;46.10
66337;SHT30;53139;45.576;5.304;2023-09-19T11:17:42;38.98;43.55
66337;SHT30;53139;45.576;5.304;2023-09-19T11:20:46;40.05;45.74
66337;SHT30;53139;45.576;5.304;2023-09-19T11:27:12;37.59;38.07
66337;SHT30;53139;45.576;5.304;2023-09-19T11:30:27;35.07;44.93
66337;SHT30;53139;45.576;5.304;2023-09-19T11:33:31;37.40;46.39
66337;SHT30;53139;45.576;5.304;2023-09-19T11:36:37;37.43;39.38
66337;SHT30;53139;45.576;5.304;2023-09-19T11:39:38;40.75;45.22
66337;SHT30;53139;45.576;5.304;2023-09-19T11:42:44;40.49;44.04
66337;SHT30;53139;45.576;5.304;2023-09-19T11:46:11;40.51;45.30
66337;SHT30;53139;45.576;5.304;2023-09-19T11:49:12;41.58;40.65
66337;SHT30;53139;45.576;5.304;2023-09-19T11:52:21;41.86;44.66
66337;SHT30;53139;45.576;5.304;2023-09-19T11:55:25;40.59;40.39
66337;SHT30;53139;45.576;5.304;2023-09-19T11:58:31;39.17;43.96
66337;SHT30;53139;45.576;5.304;2023-09-19T12:01:32;33.59;52.94
66337;SHT30;53139;45.576;5.304;2023-09-19T12:04:38;30.85;63.21
66337;SHT30;53139;45.576;5.304;2023-09-19T12:07:43;31.23;64.42
66337;SHT30;53139;45.576;5.304;2023-09-19T12:10:50;36.52;48.61
66337;SHT30;53139;45.576;5.304;2023-09-19T12:13:51;33.35;53.01
66337;SHT30;53139;45.576;5.304;2023-09-19T12:16:54;30.61;65.39
66337;SHT30;53139;45.576;5.304;2023-09-19T12:19:56;28.41;54.71
66337;SHT30;53139;45.576;5.304;2023-09-19T12:22:56;33.99;47.10
66337;SHT30;53139;45.576;5.304;2023-09-19T12:25:57;40.37;42.31
66337;SHT30;53139;45.576;5.304;2023-09-19T12:28:59;37.92;40.47
66337;SHT30;53139;45.576;5.304;2023-09-19T12:32:01;38.09;41.51
66337;SHT30;53139;45.576;5.304;2023-09-19T12:35:04;37.16;49.20
66337;SHT30;53139;45.576;5.304;2023-09-19T12:38:10;38.74;41.42
66337;SHT30;53139;45.576;5.304;2023-09-19T12:41:12;38.35;45.40
66337;SHT30;53139;45.576;5.304;2023-09-19T12:44:13;39.21;44.30
66337;SHT30;53139;45.576;5.304;2023-09-19T12:47:16;38.62;42.96
66337;SHT30;53139;45.576;5.304;2023-09-19T12:50:17;38.90;43.61
66337;SHT30;53139;45.576;5.304;2023-09-19T12:53:26;34.59;41.53
66337;SHT30;53139;45.576;5.304;2023-09-19T12:56:39;38.94;45.66
66337;SHT30;53139;45.576;5.304;2023-09-19T12:59:41;38.63;44.43
66337;SHT30;53139;45.576;5.304;2023-09-19T13:06:37;40.10;43.46
66337;SHT30;53139;45.576;5.304;2023-09-19T13:10:02;39.76;41.50
66337;SHT30;53139;45.576;5.304;2023-09-19T13:13:22;40.76;43.82
66337;SHT30;53139;45.576;5.304;2023-09-19T13:16:25;39.78;40.29
66337;SHT30;53139;45.576;5.304;2023-09-19T13:19:46;40.47;44.50
66337;SHT30;53139;45.576;5.304;2023-09-19T13:22:49;32.14;61.87
66337;SHT30;53139;45.576;5.304;2023-09-19T13:25:54;34.07;53.78
66337;SHT30;53139;45.576;5.304;2023-09-19T13:28:54;39.80;42.43
66337;SHT30;53139;45.576;5.304;2023-09-19T13:31:55;37.23;44.37
66337;SHT30;53139;45.576;5.304;2023-09-19T13:34:55;28.12;61.85
66337;SHT30;53139;45.576;5.304;2023-09-19T13:37:55;34.83;39.89
66337;SHT30;53139;45.576;5.304;2023-09-19T13:40:56;34.28;51.61
66337;SHT30;53139;45.576;5.304;2023-09-19T13:43:56;30.48;58.59
66337;SHT30;53139;45.576;5.304;2023-09-19T13:46:57;28.37;62.86
66337;SHT30;53139;45.576;5.304;2023-09-19T13:49:57;34.38;50.53
66337;SHT30;53139;45.576;5.304;2023-09-19T13:52:57;35.31;46.02
66337;SHT30;53139;45.576;5.304;2023-09-19T13:56:00;33.34;56.20
66337;SHT30;53139;45.576;5.304;2023-09-19T13:59:01;32.11;57.11
66337;SHT30;53139;45.576;5.304;2023-09-19T14:02:01;34.00;49.08
66337;SHT30;53139;45.576;5.304;2023-09-19T14:05:05;28.02;59.97
66337;SHT30;53139;45.576;5.304;2023-09-19T14:08:06;27.59;65.56
66337;SHT30;53139;45.576;5.304;2023-09-19T14:11:08;35.00;50.84
66337;SHT30;53139;45.576;5.304;2023-09-19T14:14:09;28.95;49.59
66337;SHT30;53139;45.576;5.304;2023-09-19T14:17:09;27.22;63.68
66337;SHT30;53139;45.576;5.304;2023-09-19T14:20:10;29.49;46.91
66337;SHT30;53139;45.576;5.304;2023-09-19T14:23:10;36.81;46.04
66337;SHT30;53139;45.576;5.304;2023-09-19T14:26:12;36.43;43.82
66337;SHT30;53139;45.576;5.304;2023-09-19T14:29:12;36.87;44.14
66337;SHT30;53139;45.576;5.304;2023-09-19T14:32:13;34.47;42.70
66337;SHT30;53139;45.576;5.304;2023-09-19T14:35:13;35.59;46.18
66337;SHT30;53139;45.576;5.304;2023-09-19T14:38:14;35.48;46.47
66337;SHT30;53139;45.576;5.304;2023-09-19T14:41:14;34.86;39.16
66337;SHT30;53139;45.576;5.304;2023-09-19T14:44:15;34.93;45.45
66337;SHT30;53139;45.576;5.304;2023-09-19T14:47:16;36.45;43.69
66337;SHT30;53139;45.576;5.304;2023-09-19T14:50:17;36.63;44.93
66337;SHT30;53139;45.576;5.304;2023-09-19T14:53:17;36.44;44.07
66337;SHT30;53139;45.576;5.304;2023-09-19T14:56:18;37.34;42.38
66337;SHT30;53139;45.576;5.304;2023-09-19T14:59:22;35.51;46.58
66337;SHT30;53139;45.576;5.304;2023-09-19T15:02:23;36.09;48.89
66337;SHT30;53139;45.576;5.304;2023-09-19T15:05:23;36.10;48.08
66337;SHT30;53139;45.576;5.304;2023-09-19T15:08:24;34.99;46.21
66337;SHT30;53139;45.576;5.304;2023-09-19T15:11:25;35.89;45.79
66337;SHT30;53139;45.576;5.304;2023-09-19T15:14:25;36.37;49.29
66337;SHT30;53139;45.576;5.304;2023-09-19T15:17:26;36.75;47.60
66337;SHT30;53139;45.576;5.304;2023-09-19T15:20:26;35.69;48.59
66337;SHT30;53139;45.576;5.304;2023-09-19T15:23:27;35.30;47.70
66337;SHT30;53139;45.576;5.304;2023-09-19T15:26:29;35.26;47.66
66337;SHT30;53139;45.576;5.304;2023-09-19T15:29:30;35.18;46.10
66337;SHT30;53139;45.576;5.304;2023-09-19T15:32:30;34.61;48.79
66337;SHT30;53139;45.576;5.304;2023-09-19T15:35:32;34.79;46.69
66337;SHT30;53139;45.576;5.304;2023-09-19T15:38:59;34.86;49.59
66337;SHT30;53139;45.576;5.304;2023-09-19T15:42:00;34.38;48.76
66337;SHT30;53139;45.576;5.304;2023-09-19T15:45:00;34.83;48.29
66337;SHT30;53139;45.576;5.304;2023-09-19T15:48:00;35.74;47.56
66337;SHT30;53139;45.576;5.304;2023-09-19T15:51:04;33.28;45.12
66337;SHT30;53139;45.576;5.304;2023-09-19T15:54:10;34.31;51.73
66337;SHT30;53139;45.576;5.304;2023-09-19T15:57:11;34.06;53.23
66337;SHT30;53139;45.576;5.304;2023-09-19T16:00:13;33.94;48.30
66337;SHT30;53139;45.576;5.304;2023-09-19T16:03:17;32.81;47.13
66337;SHT30;53139;45.576;5.304;2023-09-19T16:06:20;32.53;50.03
66337;SHT30;53139;45.576;5.304;2023-09-19T16:09:23;33.55;50.44
66337;SHT30;53139;45.576;5.304;2023-09-19T16:12:23;31.54;40.48
66337;SHT30;53139;45.576;5.304;2023-09-19T16:15:24;32.48;48.66
66337;SHT30;53139;45.576;5.304;2023-09-19T16:18:24;32.09;48.78
66337;SHT30;53139;45.576;5.304;2023-09-19T16:21:25;30.75;49.76
66337;SHT30;53139;45.576;5.304;2023-09-19T16:24:27;30.65;53.45
66337;SHT30;53139;45.576;5.304;2023-09-19T16:27:27;30.54;52.93
66337;SHT30;53139;45.576;5.304;2023-09-19T16:30:28;30.29;55.68
66337;SHT30;53139;45.576;5.304;2023-09-19T16:33:30;29.53;44.04
66337;SHT30;53139;45.576;5.304;2023-09-19T16:36:31;29.31;58.87
66337;SHT30;53139;45.576;5.304;2023-09-19T16:39:32;28.10;54.00
66337;SHT30;53139;45.576;5.304;2023-09-19T16:42:32;26.51;60.07
66337;SHT30;53139;45.576;5.304;2023-09-19T16:45:32;25.39;63.69
66337;SHT30;53139;45.576;5.304;2023-09-19T16:48:35;24.21;60.51
66337;SHT30;53139;45.576;5.304;2023-09-19T16:51:35;23.94;64.64
66337;SHT30;53139;45.576;5.304;2023-09-19T16:54:37;23.27;71.18
66337;SHT30;53139;45.576;5.304;2023-09-19T16:57:38;22.59;65.86
66337;SHT30;53139;45.576;5.304;2023-09-19T17:00:43;22.21;73.01
66337;SHT30;53139;45.576;5.304;2023-09-19T17:03:45;22.05;70.23
66337;SHT30;53139;45.576;5.304;2023-09-19T17:06:46;21.62;73.90
66337;SHT30;53139;45.576;5.304;2023-09-19T17:09:47;21.48;71.59
66337;SHT30;53139;45.576;5.304;2023-09-19T17:12:47;21.29;74.62
66337;SHT30;53139;45.576;5.304;2023-09-19T17:16:05;21.02;82.31
66337;SHT30;53139;45.576;5.304;2023-09-19T17:19:07;20.59;84.19
66337;SHT30;53139;45.576;5.304;2023-09-19T17:22:08;20.69;74.50
66337;SHT30;53139;45.576;5.304;2023-09-19T17:25:09;20.69;76.81
66337;SHT30;53139;45.576;5.304;2023-09-19T17:28:09;20.90;72.53
66337;SHT30;53139;45.576;5.304;2023-09-19T17:31:21;20.36;80.03
66337;SHT30;53139;45.576;5.304;2023-09-19T17:34:21;19.98;83.31
66337;SHT30;53139;45.576;5.304;2023-09-19T17:37:23;19.69;80.70
66337;SHT30;53139;45.576;5.304;2023-09-19T17:40:23;19.62;82.25
66337;SHT30;53139;45.576;5.304;2023-09-19T17:43:23;19.38;83.00
66337;SHT30;53139;45.576;5.304;2023-09-19T17:46:24;19.40;81.18
66337;SHT30;53139;45.576;5.304;2023-09-19T17:49:26;19.23;84.97
66337;SHT30;53139;45.576;5.304;2023-09-19T17:52:26;19.39;84.37
66337;SHT30;53139;45.576;5.304;2023-09-19T17:55:27;19.08;84.16
66337;SHT30;53139;45.576;5.304;2023-09-19T17:58:27;18.92;83.63
66337;SHT30;53139;45.576;5.304;2023-09-19T18:01:28;18.59;81.05
66337;SHT30;53139;45.576;5.304;2023-09-19T18:04:29;18.71;85.02
66337;SHT30;53139;45.576;5.304;2023-09-19T18:07:29;18.30;84.18
66337;SHT30;53139;45.576;5.304;2023-09-19T18:10:30;18.52;83.19
66337;SHT30;53139;45.576;5.304;2023-09-19T18:13:32;18.42;84.84
66337;SHT30;53139;45.576;5.304;2023-09-19T18:16:32;18.37;84.15
66337;SHT30;53139;45.576;5.304;2023-09-19T18:19:33;18.29;84.77
66337;SHT30;53139;45.576;5.304;2023-09-19T18:22:33;17.77;88.24
66337;SHT30;53139;45.576;5.304;2023-09-19T18:25:37;17.98;87.17
66337;SHT30;53139;45.576;5.304;2023-09-19T18:28:37;18.11;85.06
66337;SHT30;53139;45.576;5.304;2023-09-19T18:31:38;18.05;85.53
66337;SHT30;53139;45.576;5.304;2023-09-19T18:34:39;18.01;83.67
66337;SHT30;53139;45.576;5.304;2023-09-19T18:37:41;17.88;86.60
66337;SHT30;53139;45.576;5.304;2023-09-19T18:40:43;17.87;88.04
66337;SHT30;53139;45.576;5.304;2023-09-19T18:43:45;17.80;84.89
66337;SHT30;53139;45.576;5.304;2023-09-19T18:46:45;17.80;86.63
66337;SHT30;53139;45.576;5.304;2023-09-19T18:49:47;17.71;86.83
66337;SHT30;53139;45.576;5.304;2023-09-19T18:52:49;17.51;85.45
66337;SHT30;53139;45.576;5.304;2023-09-19T18:56:08;17.49;86.29
66337;SHT30;53139;45.576;5.304;2023-09-19T18:59:09;17.50;88.43
66337;SHT30;53139;45.576;5.304;2023-09-19T19:02:10;17.59;87.90
66337;SHT30;53139;45.576;5.304;2023-09-19T19:05:10;17.46;87.99
66337;SHT30;53139;45.576;5.304;2023-09-19T19:08:11;17.47;87.00
66337;SHT30;53139;45.576;5.304;2023-09-19T19:11:13;17.46;88.07
66337;SHT30;53139;45.576;5.304;2023-09-19T19:14:16;17.36;86.86
66337;SHT30;53139;45.576;5.304;2023-09-19T19:17:17;17.18;86.92
66337;SHT30;53139;45.576;5.304;2023-09-19T19:20:17;17.22;89.28
66337;SHT30;53139;45.576;5.304;2023-09-19T19:23:20;17.11;88.74
66337;SHT30;53139;45.576;5.304;2023-09-19T19:26:23;17.02;88.61
66337;SHT30;53139;45.576;5.304;2023-09-19T19:29:24;17.01;88.63
66337;SHT30;53139;45.576;5.304;2023-09-19T19:32:24;17.08;89.61
66337;SHT30;53139;45.576;5.304;2023-09-19T19:35:30;16.84;87.55
66337;SHT30;53139;45.576;5.304;2023-09-19T19:38:33;16.68;88.63
66337;SHT30;53139;45.576;5.304;2023-09-19T19:41:34;16.67;87.42
66337;SHT30;53139;45.576;5.304;2023-09-19T19:44:38;16.81;88.96